MSC Brianna — 3FXG7 — position and weather

sailwx.info

Track history (hours):
 
Tides and Currents Weather Stations Pressure Air Temp Water Temp Dewpoint Dewpoint Depression Visibility Wind Speed Wind Dir Waves Ship Positions

MSC Brianna

Last reported at 2017-Mar-31 03:07 UTC. Time now 2017-Apr-23 17:55 UTC.
Position S 36°14' E 174°56'.
Warning: this ship's position is 23 days out of date.

Length 245 m; draft 12.4 m.

Type: Ship (hazmat cat A). MMSI: 351766000.

Date/timePositionNaut miles runAvg speedWind from/ knotsBaromVisibWave heightAir tempDewpointWater temp
2017-Mar-31 03:07S 36°14' E 174°56'813.6
2017-Mar-31 02:33S 36°21' E 174°60'1312.9
2017-Mar-31 01:33S 36°34' E 174°59'1111.3
2017-Mar-31 00:32S 36°44' E 174°51'0 0.3
2017-Mar-30 23:28S 36°44' E 174°51'0 0.0
2017-Mar-30 22:28S 36°44' E 174°51'0 0.1
2017-Mar-30 21:16S 36°44' E 174°51'0 0.0
2017-Mar-30 20:28S 36°44' E 174°51'0 0.0
2017-Mar-30 19:28S 36°44' E 174°51'0 0.0
2017-Mar-30 18:22S 36°44' E 174°51'0 0.1
2017-Mar-30 17:22S 36°44' E 174°51'0 0.1
2017-Mar-30 16:32S 36°44' E 174°51'3 2.8
2017-Mar-30 15:33S 36°42' E 174°53'8 7.8
2017-Mar-30 14:33S 36°35' E 174°58'9 9.2
2017-Mar-30 13:33S 36°26' E 175°02'1212.4
2017-Mar-30 12:33S 36°15' E 174°56'31 7.8
2017-Mar-30 08:33S 35°55' E 175°26'1413.2
2017-Mar-30 07:31S 36°02' E 175°40'  
Track history (hours):
 
Tides and Currents Weather Stations Pressure Air Temp Water Temp Dewpoint Dewpoint Depression Visibility Wind Speed Wind Dir Waves Ship Positions

MSC Brianna

Last reported at 2017-Mar-31 03:07 UTC. Time now 2017-Apr-23 17:55 UTC.
Position S 36°14' E 174°56'.
Warning: this ship's position is 23 days out of date.

Length 245 m; draft 12.4 m.

Type: Ship (hazmat cat A). MMSI: 351766000.

Date/timePositionNaut miles runAvg speedWind from/ knotsBaromVisibWave heightAir tempDewpointWater temp
2017-Mar-31 03:07S 36°14' E 174°56'813.6
2017-Mar-31 02:33S 36°21' E 174°60'1312.9
2017-Mar-31 01:33S 36°34' E 174°59'1111.3
2017-Mar-31 00:32S 36°44' E 174°51'0 0.3
2017-Mar-30 23:28S 36°44' E 174°51'0 0.0
2017-Mar-30 22:28S 36°44' E 174°51'0 0.1
2017-Mar-30 21:16S 36°44' E 174°51'0 0.0
2017-Mar-30 20:28S 36°44' E 174°51'0 0.0
2017-Mar-30 19:28S 36°44' E 174°51'0 0.0
2017-Mar-30 18:22S 36°44' E 174°51'0 0.1
2017-Mar-30 17:22S 36°44' E 174°51'0 0.1
2017-Mar-30 16:32S 36°44' E 174°51'3 2.8
2017-Mar-30 15:33S 36°42' E 174°53'8 7.8
2017-Mar-30 14:33S 36°35' E 174°58'9 9.2
2017-Mar-30 13:33S 36°26' E 175°02'1212.4
2017-Mar-30 12:33S 36°15' E 174°56'31 7.8
2017-Mar-30 08:33S 35°55' E 175°26'1413.2
2017-Mar-30 07:31S 36°02' E 175°40'  

Dump ship's entire track history